Ana Sayfa
METAR-TAF:

METAR-TAF

Havaalanları :

Manokotak, Alaska, Amerika Birleşik Devletleri

Enlem: 58-59-19N, Boylam: 159-02-56W, yükseklik: 16 m

Güncel hava durumu gözlemi

Rapor saat 12:26 UTC de 13 dakika önce yapıldı.
Rüzgar batıdan 13 kt ve 18 kt'a kadar ani rüzgarlar
Sıcaklık -2°C
Nem 93%
Basınç 1001 hPa
Görüş mesafesi: 4.0 km
hafif kar, Pus

METAR: PAMB 121226Z AUTO 27013G18KT 2 1/2SM -SN BR M02/M03 A2956 RMK AO2 VIS 2V4 P0000 FZRANO $

Saat: 04:39 (12:39 UTC)


TAF: eksik

4.000'den fazla havaalanı için hava durumu gözlemleri ve tahminleri (METAR ve TAF raporları).

Kullanılabilir istasyonlar harita üzerinde sarı ve kırmızı noktalarla gösterilir.

İstasyonun adını görmek için fareyi noktanın üzerinde gezdirin.

Sonrasında hava gözlem ve tahminlerini görmek için tıklayın.

Haritayı değiştirmek için: yaklaştırmak için siyah artı işaretli yeşil düğmeye ve uzaklaştırmak için de eksi işaretli düğmeye hızla tıklayın; bitişik haritalar için yeşil okları kullanın.


METAR-TAF: